Time;durP1;ratioP1;P1;durP2;ratioP2;P2;SDS_P1;SDS_P2;PMS_P1;PMS_P2;Temp;Humidity;BMP_temperature;BMP_pressure;BME280_temperature;BME280_humidity;BME280_pressure;Samples;Min_cycle;Max_cycle;Signal;HPM_P1;HPM_P2
2021/09/28 00:00:36;;;;;;;3.38;1.00;;;15.30;65.20;;;;;;4956134;29;20023;-73
2021/09/28 00:03:01;;;;;;;5.43;0.90;;;15.40;65.20;;;;;;4955829;29;20050;-74
2021/09/28 00:05:27;;;;;;;7.35;1.20;;;15.40;65.40;;;;;;4956472;29;20039;-74
2021/09/28 00:07:53;;;;;;;6.47;0.90;;;15.30;65.30;;;;;;4955916;29;20028;-74
2021/09/28 00:10:19;;;;;;;6.22;1.17;;;15.30;65.60;;;;;;4955483;28;20042;-74
2021/09/28 00:12:45;;;;;;;6.93;1.20;;;15.30;65.40;;;;;;4938116;29;20039;-73
2021/09/28 00:15:12;;;;;;;5.05;0.70;;;15.30;65.30;;;;;;4955964;29;20027;-74
2021/09/28 00:17:39;;;;;;;7.55;0.90;;;15.20;66.30;;;;;;4956169;29;20035;-74
2021/09/28 00:20:06;;;;;;;7.70;1.05;;;15.20;65.80;;;;;;4955814;29;20027;-74
2021/09/28 00:22:32;;;;;;;5.30;1.25;;;15.20;65.40;;;;;;4955565;29;20059;-74
2021/09/28 00:24:58;;;;;;;4.35;0.98;;;15.20;65.80;;;;;;4955638;29;20039;-74
2021/09/28 00:27:24;;;;;;;7.88;1.17;;;15.10;66.90;;;;;;4955342;29;20037;-74
2021/09/28 00:29:49;;;;;;;3.83;0.85;;;15.10;65.90;;;;;;4938567;29;20050;-74
2021/09/28 00:32:15;;;;;;;4.88;1.00;;;15.10;66.50;;;;;;4956070;29;20031;-73
2021/09/28 00:34:42;;;;;;;6.07;1.00;;;15.00;66.40;;;;;;4955282;29;20503;-75
2021/09/28 00:37:08;;;;;;;6.72;1.10;;;15.00;66.90;;;;;;4938397;29;20444;-75
2021/09/28 00:39:34;;;;;;;6.35;1.20;;;15.00;66.80;;;;;;4955374;29;20067;-75
2021/09/28 00:41:59;;;;;;;4.95;1.23;;;14.90;67.10;;;;;;4954783;29;20400;-72
2021/09/28 00:44:46;;;;;;;4.05;1.02;;;14.90;66.90;;;;;;4955858;29;20035;-73
2021/09/28 00:47:13;;;;;;;4.65;1.10;;;14.90;66.40;;;;;;4954939;29;20043;-75
2021/09/28 00:49:43;;;;;;;5.15;0.90;;;14.90;67.20;;;;;;4937936;29;20028;-75
2021/09/28 00:52:15;;;;;;;6.68;0.82;;;14.90;67.00;;;;;;4955298;29;20038;-73
2021/09/28 00:54:43;;;;;;;6.10;0.73;;;14.90;67.30;;;;;;4955199;29;20027;-75
2021/09/28 00:57:09;;;;;;;6.15;1.10;;;14.80;66.60;;;;;;4954833;29;20361;-75
2021/09/28 00:59:36;;;;;;;3.28;0.68;;;14.90;66.90;;;;;;4938557;29;20023;-75
2021/09/28 01:02:07;;;;;;;5.65;0.95;;;15.00;67.80;;;;;;4954942;29;20031;-75
2021/09/28 01:04:33;;;;;;;4.97;0.90;;;15.00;67.60;;;;;;4954753;29;20134;-75
2021/09/28 01:06:59;;;;;;;8.30;1.05;;;15.00;67.40;;;;;;4954975;29;20062;-75
2021/09/28 01:09:25;;;;;;;3.55;0.80;;;14.90;67.00;;;;;;4954950;29;20031;-75
2021/09/28 01:11:52;;;;;;;5.13;1.02;;;15.00;67.40;;;;;;4954715;29;20020;-75
2021/09/28 01:14:17;;;;;;;5.55;0.90;;;15.00;67.60;;;;;;4955170;29;20087;-75
2021/09/28 01:16:43;;;;;;;3.45;0.77;;;15.00;67.60;;;;;;4954643;29;20035;-75
2021/09/28 01:19:09;;;;;;;2.88;0.93;;;15.10;67.20;;;;;;4954599;29;20524;-75
2021/09/28 01:21:34;;;;;;;4.22;0.93;;;15.10;67.20;;;;;;4954437;28;20392;-75
2021/09/28 01:24:00;;;;;;;5.35;0.80;;;15.10;67.50;;;;;;4953977;29;20039;-75
2021/09/28 01:26:26;;;;;;;6.72;1.08;;;15.00;67.30;;;;;;4954775;29;20110;-75
2021/09/28 01:28:54;;;;;;;5.63;0.90;;;15.00;67.40;;;;;;4954701;29;20038;-75
2021/09/28 01:31:19;;;;;;;4.13;0.80;;;15.10;67.50;;;;;;4954460;29;20027;-75
2021/09/28 01:33:46;;;;;;;3.58;0.88;;;15.00;67.60;;;;;;4954455;29;20132;-75
2021/09/28 01:36:12;;;;;;;5.28;0.90;;;15.00;67.60;;;;;;4937256;29;20027;-75
2021/09/28 01:38:38;;;;;;;7.30;1.13;;;15.00;67.80;;;;;;4954883;29;20404;-75
2021/09/28 01:41:03;;;;;;;4.85;0.90;;;14.90;67.80;;;;;;4953890;29;20035;-75
2021/09/28 01:43:29;;;;;;;3.97;0.90;;;14.90;68.00;;;;;;4954226;29;20053;-75
2021/09/28 01:46:01;;;;;;;6.25;0.98;;;14.80;68.20;;;;;;4954102;29;20072;-75
2021/09/28 01:48:33;;;;;;;4.50;0.82;;;14.70;68.20;;;;;;4954274;29;20027;-75
2021/09/28 01:50:59;;;;;;;9.57;1.00;;;14.70;68.20;;;;;;4937014;29;20115;-75
2021/09/28 01:53:25;;;;;;;3.90;0.75;;;14.70;68.70;;;;;;4954679;29;20027;-75
2021/09/28 01:55:50;;;;;;;4.05;0.82;;;14.60;68.80;;;;;;4953490;29;20039;-75
2021/09/28 01:58:17;;;;;;;3.53;0.85;;;14.70;69.10;;;;;;4954060;29;20034;-75
2021/09/28 02:00:43;;;;;;;6.38;1.02;;;14.70;69.10;;;;;;4953998;29;20046;-75
2021/09/28 02:03:10;;;;;;;6.93;1.05;;;14.70;69.00;;;;;;4953946;29;20138;-75
2021/09/28 02:05:35;;;;;;;3.45;0.70;;;14.80;68.80;;;;;;4954702;29;20027;-75
2021/09/28 02:08:01;;;;;;;5.13;0.90;;;14.80;69.00;;;;;;4953690;29;20397;-75
2021/09/28 02:10:27;;;;;;;3.78;0.98;;;14.80;68.90;;;;;;4953360;29;20102;-75
2021/09/28 02:12:53;;;;;;;3.38;0.70;;;14.80;69.00;;;;;;4953895;29;20170;-75
2021/09/28 02:15:18;;;;;;;4.65;0.90;;;14.90;68.80;;;;;;4953825;29;20046;-75
2021/09/28 02:17:44;;;;;;;4.25;0.95;;;14.80;68.70;;;;;;4954042;29;20435;-76
2021/09/28 02:20:10;;;;;;;4.70;1.30;;;14.80;69.10;;;;;;4954163;29;20083;-75
2021/09/28 02:22:36;;;;;;;4.35;0.80;;;14.80;68.90;;;;;;4953821;29;20404;-75
2021/09/28 02:25:03;;;;;;;5.20;0.95;;;14.70;69.00;;;;;;4953142;29;20508;-76
2021/09/28 02:27:29;;;;;;;5.70;0.95;;;14.70;69.00;;;;;;4953874;29;20051;-75
2021/09/28 02:29:54;;;;;;;6.32;0.98;;;14.70;69.40;;;;;;4953714;29;20039;-75
2021/09/28 02:32:20;;;;;;;5.82;1.30;;;14.60;69.70;;;;;;4954112;29;20031;-75
2021/09/28 02:34:46;;;;;;;4.28;0.80;;;14.60;69.90;;;;;;4935961;29;20112;-75
2021/09/28 02:37:12;;;;;;;6.38;0.98;;;14.60;69.80;;;;;;4953183;29;20039;-75
2021/09/28 02:39:40;;;;;;;4.88;0.80;;;14.60;70.30;;;;;;4953556;29;20130;-75
2021/09/28 02:42:07;;;;;;;5.38;1.00;;;14.60;70.50;;;;;;4921424;29;20023;-75
2021/09/28 02:44:33;;;;;;;4.45;0.95;;;14.60;70.20;;;;;;4949914;29;20468;-75
2021/09/28 02:46:58;;;;;;;3.30;0.80;;;14.60;69.80;;;;;;4936326;29;20523;-75
2021/09/28 02:49:24;;;;;;;7.68;1.00;;;14.60;70.00;;;;;;4953627;29;20122;-75
2021/09/28 02:51:50;;;;;;;9.13;1.20;;;14.60;69.70;;;;;;4953026;29;20031;-75
2021/09/28 02:54:16;;;;;;;9.55;1.05;;;14.60;69.90;;;;;;4953612;29;20034;-75
2021/09/28 02:56:42;;;;;;;5.15;1.02;;;14.60;70.00;;;;;;4953673;29;20035;-75
2021/09/28 02:59:08;;;;;;;5.45;1.00;;;14.70;70.10;;;;;;4953723;29;20070;-75
2021/09/28 03:01:33;;;;;;;4.47;1.08;;;14.70;70.10;;;;;;4953244;29;20027;-75
2021/09/28 03:03:59;;;;;;;5.57;1.15;;;14.70;70.10;;;;;;4953304;29;20047;-75
2021/09/28 03:06:25;;;;;;;4.20;0.88;;;14.70;70.00;;;;;;4953028;29;20105;-76
2021/09/28 03:08:50;;;;;;;5.63;0.90;;;14.70;69.80;;;;;;4953544;29;20035;-75
2021/09/28 03:11:16;;;;;;;5.40;1.15;;;14.70;69.80;;;;;;4953842;29;20130;-75
2021/09/28 03:13:41;;;;;;;3.38;0.70;;;14.70;70.20;;;;;;4953281;29;20031;-75
2021/09/28 03:16:07;;;;;;;6.15;0.98;;;14.60;70.00;;;;;;4953307;29;20436;-75
2021/09/28 03:18:33;;;;;;;3.97;0.75;;;14.60;70.20;;;;;;4953192;29;20038;-75
2021/09/28 03:20:58;;;;;;;6.15;1.13;;;14.60;70.40;;;;;;4952980;29;20027;-75
2021/09/28 03:23:24;;;;;;;5.55;0.90;;;14.60;70.10;;;;;;4953703;29;20031;-75
2021/09/28 03:25:50;;;;;;;6.88;1.10;;;14.70;70.30;;;;;;4953088;29;20082;-76
2021/09/28 03:28:16;;;;;;;6.55;1.00;;;14.70;70.20;;;;;;4953161;29;20035;-75
2021/09/28 03:30:42;;;;;;;3.95;0.90;;;14.70;70.20;;;;;;4953261;29;20038;-75
2021/09/28 03:33:08;;;;;;;5.63;0.90;;;14.70;70.50;;;;;;4953170;29;20032;-75
2021/09/28 03:35:34;;;;;;;2.83;0.80;;;14.70;70.20;;;;;;4953559;29;20031;-75
2021/09/28 03:38:00;;;;;;;4.90;1.20;;;14.70;70.30;;;;;;4953056;29;20511;-75
2021/09/28 03:40:29;;;;;;;5.40;1.00;;;14.70;70.50;;;;;;4953240;29;20098;-75
2021/09/28 03:42:55;;;;;;;5.28;1.10;;;14.70;70.40;;;;;;4953005;29;20031;-75
2021/09/28 03:45:21;;;;;;;4.38;0.90;;;14.80;70.10;;;;;;4953229;28;20027;-75
2021/09/28 03:47:47;;;;;;;3.30;0.63;;;14.90;70.20;;;;;;4956648;29;20035;-75
2021/09/28 03:50:12;;;;;;;4.45;0.65;;;14.80;70.20;;;;;;4956596;29;20027;-75
2021/09/28 03:52:38;;;;;;;5.20;1.00;;;14.80;70.30;;;;;;4939158;29;20031;-75
2021/09/28 03:55:05;;;;;;;3.75;0.85;;;14.80;70.10;;;;;;4956280;29;20023;-76
2021/09/28 03:57:30;;;;;;;4.90;0.93;;;14.80;70.00;;;;;;4956202;29;20031;-75
2021/09/28 03:59:56;;;;;;;6.80;1.40;;;14.80;70.50;;;;;;4956336;29;20035;-75
2021/09/28 04:02:22;;;;;;;2.92;0.75;;;14.80;70.60;;;;;;4938742;29;20038;-75
2021/09/28 04:04:48;;;;;;;5.38;0.98;;;14.80;70.70;;;;;;4955602;29;20089;-75
2021/09/28 04:07:14;;;;;;;4.20;1.05;;;14.70;70.50;;;;;;4955312;29;20404;-76
2021/09/28 04:09:40;;;;;;;6.28;1.00;;;14.70;70.50;;;;;;4955472;29;20035;-75
2021/09/28 04:12:07;;;;;;;5.72;0.93;;;14.70;70.90;;;;;;4955609;29;20380;-75
2021/09/28 04:14:33;;;;;;;7.03;1.00;;;14.70;70.80;;;;;;4951594;29;20037;-75
2021/09/28 04:16:59;;;;;;;6.65;1.17;;;14.70;70.90;;;;;;4955347;29;20031;-76
2021/09/28 04:19:25;;;;;;;6.45;0.88;;;14.70;71.30;;;;;;4955227;29;20110;-75
2021/09/28 04:21:50;;;;;;;3.42;0.98;;;14.70;70.80;;;;;;4955359;29;20622;-76
2021/09/28 04:24:16;;;;;;;5.43;1.30;;;14.70;71.30;;;;;;4955384;29;20043;-76
2021/09/28 04:26:42;;;;;;;5.10;1.00;;;14.70;71.70;;;;;;4955540;29;20027;-76
2021/09/28 04:29:08;;;;;;;2.25;0.55;;;14.70;71.40;;;;;;4955862;29;20023;-76
2021/09/28 04:31:33;;;;;;;4.55;0.80;;;14.60;70.50;;;;;;4955029;29;20051;-75
2021/09/28 04:33:59;;;;;;;3.53;0.80;;;14.60;71.50;;;;;;4954635;29;20106;-75
2021/09/28 04:36:25;;;;;;;3.72;0.95;;;14.60;71.60;;;;;;4955055;29;20019;-75
2021/09/28 04:38:51;;;;;;;5.28;0.88;;;14.60;70.90;;;;;;4955350;29;20630;-75
2021/09/28 04:41:17;;;;;;;6.32;1.02;;;14.60;71.40;;;;;;4953920;29;20019;-75
2021/09/28 04:43:43;;;;;;;4.45;1.00;;;14.60;71.80;;;;;;4954896;29;20381;-76
2021/09/28 04:46:09;;;;;;;4.82;1.10;;;14.70;71.40;;;;;;4954581;29;20062;-75
2021/09/28 04:48:34;;;;;;;7.95;1.10;;;14.70;71.50;;;;;;4954832;29;20035;-75
2021/09/28 04:51:01;;;;;;;6.55;0.95;;;14.60;71.90;;;;;;4954059;29;20042;-75
2021/09/28 04:53:27;;;;;;;3.85;0.73;;;14.50;71.60;;;;;;4951237;29;20027;-75
2021/09/28 04:55:55;;;;;;;7.68;0.90;;;14.60;72.20;;;;;;4952888;29;20037;-75
2021/09/28 04:58:23;;;;;;;4.63;1.08;;;14.70;72.10;;;;;;4949831;29;20038;-75
2021/09/28 05:00:49;;;;;;;5.07;0.80;;;14.70;71.90;;;;;;4954276;29;20182;-75
2021/09/28 05:03:15;;;;;;;4.82;1.17;;;14.60;72.30;;;;;;4937487;29;20031;-75
2021/09/28 05:05:41;;;;;;;5.15;1.08;;;14.70;72.30;;;;;;4954794;29;20038;-75
2021/09/28 05:08:06;;;;;;;6.38;0.95;;;14.60;72.30;;;;;;4937748;29;20031;-76
2021/09/28 05:10:33;;;;;;;5.32;0.80;;;14.60;72.10;;;;;;4936994;29;20037;-75
2021/09/28 05:12:58;;;;;;;4.55;0.88;;;14.60;72.10;;;;;;4954475;29;20147;-75
2021/09/28 05:15:24;;;;;;;7.00;1.30;;;14.60;72.30;;;;;;4954140;29;20059;-75
2021/09/28 05:17:50;;;;;;;6.88;0.90;;;14.70;71.80;;;;;;4954111;29;20458;-76
2021/09/28 05:20:16;;;;;;;3.45;1.00;;;14.70;72.30;;;;;;4955081;29;20031;-76
2021/09/28 05:22:42;;;;;;;4.35;0.80;;;14.70;71.80;;;;;;4954309;29;20519;-76
2021/09/28 05:25:08;;;;;;;5.72;1.10;;;14.80;72.30;;;;;;4953949;29;20039;-81
2021/09/28 05:27:34;;;;;;;3.45;0.80;;;14.70;71.80;;;;;;4954244;29;20035;-76
2021/09/28 05:29:59;;;;;;;7.50;1.00;;;14.70;71.70;;;;;;4953970;29;20039;-76
2021/09/28 05:32:25;;;;;;;6.25;1.10;;;14.70;72.30;;;;;;4954027;29;20027;-76
2021/09/28 05:34:51;;;;;;;6.50;1.05;;;14.70;72.10;;;;;;4954106;29;20051;-75
2021/09/28 05:37:16;;;;;;;7.78;1.00;;;14.70;72.40;;;;;;4947289;29;20027;-74
2021/09/28 05:39:42;;;;;;;5.65;0.90;;;14.70;72.30;;;;;;4928929;29;20553;-76
2021/09/28 05:42:08;;;;;;;4.15;1.10;;;14.70;72.30;;;;;;4954549;29;20027;-78
2021/09/28 05:44:33;;;;;;;6.28;1.00;;;14.70;72.00;;;;;;4954814;29;20039;-79
2021/09/28 05:46:59;;;;;;;5.25;1.20;;;14.80;72.40;;;;;;4953780;29;20102;-78
2021/09/28 05:49:25;;;;;;;6.43;1.05;;;14.80;72.30;;;;;;4950534;29;20035;-75
2021/09/28 05:51:56;;;;;;;4.95;1.00;;;14.80;72.50;;;;;;4948425;29;20110;-75
2021/09/28 05:54:22;;;;;;;2.88;0.80;;;14.90;72.40;;;;;;4948480;29;20512;-76
2021/09/28 05:56:49;;;;;;;7.25;1.42;;;14.90;72.50;;;;;;4944707;29;20071;-76
2021/09/28 05:59:15;;;;;;;5.53;1.02;;;14.80;72.50;;;;;;4954379;29;20039;-75
2021/09/28 06:01:41;;;;;;;6.57;1.27;;;14.70;72.60;;;;;;4946570;29;20031;-76
2021/09/28 06:04:07;;;;;;;3.22;0.95;;;14.70;73.00;;;;;;4948758;29;20043;-76
2021/09/28 06:06:33;;;;;;;4.65;0.82;;;14.80;72.40;;;;;;4943161;29;20385;-75
2021/09/28 06:08:58;;;;;;;6.00;1.00;;;14.80;73.00;;;;;;4928285;29;20085;-76
2021/09/28 06:11:24;;;;;;;5.68;0.90;;;14.90;72.80;;;;;;4928242;29;20114;-76
2021/09/28 06:13:51;;;;;;;4.95;1.70;;;14.90;72.30;;;;;;4945061;29;20113;-77
2021/09/28 06:16:17;;;;;;;6.13;1.15;;;14.90;72.60;;;;;;4928702;29;20023;-77
2021/09/28 06:18:43;;;;;;;7.07;1.35;;;14.80;72.80;;;;;;4944924;29;20028;-76
2021/09/28 06:21:09;;;;;;;4.82;0.90;;;14.80;73.10;;;;;;4943754;29;20505;-76
2021/09/28 06:23:35;;;;;;;4.70;0.95;;;14.70;73.10;;;;;;4943349;29;20039;-76
2021/09/28 06:26:02;;;;;;;5.00;1.00;;;14.70;73.40;;;;;;4944858;29;20074;-77
2021/09/28 06:28:28;;;;;;;3.90;1.08;;;14.80;73.50;;;;;;4946211;29;20110;-75
2021/09/28 06:30:54;;;;;;;4.40;1.05;;;14.70;73.40;;;;;;4943959;29;20115;-75
2021/09/28 06:33:20;;;;;;;4.95;1.00;;;14.80;73.50;;;;;;4925844;29;20031;-75
2021/09/28 06:35:45;;;;;;;5.40;1.00;;;14.80;73.50;;;;;;4942757;29;20601;-75
2021/09/28 06:38:11;;;;;;;8.48;1.00;;;14.80;73.50;;;;;;4929542;29;20509;-75
2021/09/28 06:40:37;;;;;;;4.95;1.20;;;14.70;73.40;;;;;;4927769;29;20039;-75
2021/09/28 06:43:03;;;;;;;6.45;1.02;;;14.80;73.40;;;;;;4947597;29;20093;-74
2021/09/28 06:45:29;;;;;;;6.50;1.05;;;14.70;73.60;;;;;;4944023;29;20039;-75
2021/09/28 06:47:55;;;;;;;7.60;1.02;;;14.80;73.20;;;;;;4926203;29;20024;-75
2021/09/28 06:50:21;;;;;;;5.97;0.93;;;14.80;73.70;;;;;;4946145;29;20027;-74
2021/09/28 06:52:47;;;;;;;6.05;1.48;;;14.70;74.00;;;;;;4948363;29;20115;-75
2021/09/28 06:55:13;;;;;;;6.20;1.20;;;14.70;74.00;;;;;;4946343;29;20020;-75
2021/09/28 06:57:39;;;;;;;5.32;1.20;;;14.70;74.50;;;;;;4947529;29;20031;-78
2021/09/28 07:00:05;;;;;;;10.15;1.50;;;14.60;74.70;;;;;;4934498;29;20027;-76
2021/09/28 07:02:31;;;;;;;6.80;1.30;;;14.60;75.00;;;;;;4944243;29;20033;-75
2021/09/28 07:04:56;;;;;;;5.82;1.73;;;14.60;74.40;;;;;;4944686;29;20044;-75
2021/09/28 07:07:25;;;;;;;5.80;1.40;;;14.70;75.30;;;;;;4944831;29;20031;-75
2021/09/28 07:09:51;;;;;;;5.63;1.38;;;14.70;75.20;;;;;;4947219;29;20035;-75
2021/09/28 07:12:17;;;;;;;5.97;1.33;;;14.80;75.30;;;;;;4943458;29;20034;-76
2021/09/28 07:14:43;;;;;;;6.10;1.17;;;14.90;75.30;;;;;;4945037;29;20031;-77
2021/09/28 07:17:08;;;;;;;5.57;1.08;;;15.00;75.30;;;;;;4943670;29;20016;-76
2021/09/28 07:19:34;;;;;;;6.95;1.10;;;15.10;75.00;;;;;;4942331;29;20485;-77
2021/09/28 07:22:00;;;;;;;7.65;1.42;;;15.30;74.90;;;;;;4948360;29;20047;-76
2021/09/28 07:24:25;;;;;;;4.18;1.10;;;15.40;74.60;;;;;;4944306;29;20031;-76
2021/09/28 07:26:52;;;;;;;5.20;1.23;;;15.60;74.60;;;;;;4946829;29;20043;-75
2021/09/28 07:29:17;;;;;;;4.35;1.20;;;15.80;74.00;;;;;;4936411;29;20028;-75
2021/09/28 07:31:43;;;;;;;3.75;1.05;;;15.80;73.20;;;;;;4910779;29;20046;-75
2021/09/28 07:34:09;;;;;;;7.05;1.13;;;15.80;73.00;;;;;;4880913;29;20060;-75
2021/09/28 07:36:35;;;;;;;7.20;1.20;;;15.70;73.40;;;;;;4880587;29;20040;-75
2021/09/28 07:39:02;;;;;;;5.50;1.02;;;15.60;73.30;;;;;;4880466;29;20102;-75
2021/09/28 07:41:28;;;;;;;7.57;1.10;;;15.60;73.30;;;;;;4908508;29;20752;-75
2021/09/28 07:43:54;;;;;;;7.30;1.10;;;15.50;73.80;;;;;;4906931;29;20465;-75
2021/09/28 07:46:19;;;;;;;5.47;1.05;;;15.70;74.00;;;;;;4904031;29;20043;-74
2021/09/28 07:48:45;;;;;;;5.00;1.05;;;16.10;74.60;;;;;;4903762;29;20080;-74
2021/09/28 07:51:12;;;;;;;4.63;1.40;;;16.80;73.40;;;;;;4910033;29;20036;-75
2021/09/28 07:53:37;;;;;;;7.07;1.20;;;17.30;72.80;;;;;;4890660;29;20592;-74
2021/09/28 07:56:04;;;;;;;5.97;1.13;;;17.50;69.70;;;;;;4895405;29;20040;-75
2021/09/28 07:58:30;;;;;;;5.97;1.23;;;17.30;69.30;;;;;;4882030;29;20028;-74
2021/09/28 08:00:56;;;;;;;6.47;1.42;;;17.30;68.90;;;;;;4908725;29;20892;-74
2021/09/28 08:03:22;;;;;;;4.78;0.80;;;17.20;69.50;;;;;;4886689;29;20566;-74
2021/09/28 08:05:50;;;;;;;5.47;0.90;;;17.20;69.90;;;;;;4884831;29;20059;-74
2021/09/28 08:08:16;;;;;;;8.70;1.27;;;17.20;69.20;;;;;;4909036;29;20156;-75
2021/09/28 08:10:42;;;;;;;3.80;0.80;;;17.10;69.10;;;;;;4899047;29;20035;-75
2021/09/28 08:13:10;;;;;;;4.68;1.25;;;17.20;69.70;;;;;;4927172;29;20031;-75
2021/09/28 08:15:36;;;;;;;5.65;1.00;;;17.20;69.40;;;;;;4934354;29;20034;-75
2021/09/28 08:18:02;;;;;;;8.32;1.67;;;17.70;69.90;;;;;;4935603;29;20030;-75
2021/09/28 08:20:28;;;;;;;8.48;1.25;;;18.00;69.30;;;;;;4936706;29;20035;-75
2021/09/28 08:22:56;;;;;;;3.30;1.13;;;18.10;68.10;;;;;;4936676;29;20111;-74
2021/09/28 08:25:32;;;;;;;4.50;1.33;;;18.60;69.00;;;;;;4936028;29;20416;-75
2021/09/28 08:30:43;;;;;;;4.30;1.30;;;18.40;66.10;;;;;;4936534;29;20126;-75
2021/09/28 08:33:08;;;;;;;10.13;1.20;;;18.30;66.20;;;;;;4935729;29;20064;-75
2021/09/28 08:35:34;;;;;;;5.07;1.10;;;18.40;67.10;;;;;;4939383;28;20477;-75
2021/09/28 08:38:00;;;;;;;6.18;1.35;;;18.50;66.70;;;;;;4955051;29;20507;-75
2021/09/28 08:40:25;;;;;;;5.07;1.30;;;18.30;65.90;;;;;;4955049;29;20024;-75
2021/09/28 08:42:54;;;;;;;6.20;1.30;;;18.30;66.60;;;;;;4955299;29;20110;-75
2021/09/28 08:45:20;;;;;;;6.32;1.40;;;18.70;67.90;;;;;;4955281;29;20516;-75
2021/09/28 08:47:46;;;;;;;5.30;1.80;;;18.70;65.60;;;;;;4955409;29;20054;-76
2021/09/28 08:50:17;;;;;;;6.18;1.70;;;18.70;65.50;;;;;;4954752;29;20031;-75
2021/09/28 08:52:47;;;;;;;5.88;2.03;;;18.80;66.10;;;;;;4954988;29;20034;-75
2021/09/28 08:55:13;;;;;;;7.65;1.90;;;18.60;65.60;;;;;;4954621;29;20039;-75
2021/09/28 08:57:41;;;;;;;5.65;1.70;;;18.80;66.50;;;;;;4954991;29;20023;-76
2021/09/28 09:00:16;;;;;;;5.10;1.80;;;19.20;66.80;;;;;;4939788;29;20492;-75
2021/09/28 09:02:46;;;;;;;6.30;1.80;;;19.70;65.70;;;;;;4944408;29;20035;-76
2021/09/28 09:05:16;;;;;;;5.53;1.77;;;20.10;63.80;;;;;;4950814;29;20480;-76
2021/09/28 09:07:57;;;;;;;7.53;1.92;;;20.20;63.50;;;;;;4954741;29;20080;-75
2021/09/28 09:10:28;;;;;;;6.80;1.63;;;20.30;61.20;;;;;;4954292;29;20038;-75
2021/09/28 09:12:55;;;;;;;3.67;1.33;;;20.00;62.50;;;;;;4954814;29;20031;-75
2021/09/28 09:15:30;;;;;;;7.30;1.92;;;20.10;62.50;;;;;;4954375;29;20094;-75
2021/09/28 09:18:02;;;;;;;5.85;1.77;;;20.20;62.50;;;;;;4954635;29;20023;-76
2021/09/28 09:20:43;;;;;;;5.57;1.50;;;20.10;61.80;;;;;;4937684;29;20128;-75
2021/09/28 09:23:32;;;;;;;5.10;1.38;;;19.80;61.60;;;;;;4954137;29;20058;-75
2021/09/28 09:26:21;;;;;;;5.28;1.13;;;19.80;62.70;;;;;;4954491;29;20117;-75
2021/09/28 09:28:51;;;;;;;4.70;1.13;;;19.60;62.10;;;;;;4954449;29;20039;-74
2021/09/28 09:31:32;;;;;;;5.90;1.48;;;19.60;63.10;;;;;;4954337;29;20020;-76
2021/09/28 09:34:09;;;;;;;7.25;1.30;;;19.70;64.00;;;;;;4954072;29;20066;-75
2021/09/28 09:36:36;;;;;;;4.30;1.00;;;19.80;63.00;;;;;;4953935;29;20043;-77
2021/09/28 09:39:04;;;;;;;6.22;1.35;;;19.90;63.30;;;;;;4954045;29;20122;-75
2021/09/28 09:41:32;;;;;;;5.53;1.20;;;19.80;62.10;;;;;;4937310;29;20031;-75
2021/09/28 09:44:14;;;;;;;4.63;0.90;;;19.90;62.60;;;;;;4953454;28;20065;-76
2021/09/28 09:46:46;;;;;;;5.63;0.93;;;20.10;64.00;;;;;;4954104;29;20035;-76
2021/09/28 09:49:23;;;;;;;5.13;1.00;;;20.40;63.30;;;;;;4953795;29;20050;-76
2021/09/28 09:51:52;;;;;;;4.72;1.00;;;20.40;61.30;;;;;;4953979;29;20032;-76
2021/09/28 09:54:32;;;;;;;4.85;1.15;;;20.50;62.30;;;;;;4953793;29;20031;-76
2021/09/28 09:57:01;;;;;;;6.55;1.30;;;20.60;62.10;;;;;;4936875;29;20039;-76
2021/09/28 09:59:26;;;;;;;4.40;1.00;;;20.60;60.80;;;;;;4937185;29;20059;-76
2021/09/28 10:01:52;;;;;;;3.85;0.88;;;20.50;60.70;;;;;;4953796;29;20054;-76
2021/09/28 10:04:21;;;;;;;4.43;0.90;;;20.30;60.80;;;;;;4953469;29;20435;-76
2021/09/28 10:06:48;;;;;;;6.47;1.00;;;20.30;61.20;;;;;;4953239;29;20114;-76
2021/09/28 10:09:20;;;;;;;4.53;0.80;;;20.30;61.10;;;;;;4953864;29;20110;-75
2021/09/28 10:11:51;;;;;;;3.58;0.70;;;20.40;61.40;;;;;;4936235;29;20046;-69
2021/09/28 10:14:36;;;;;;;4.65;1.00;;;20.60;62.10;;;;;;4953846;29;20084;-66
2021/09/28 10:17:28;;;;;;;6.50;1.10;;;20.70;61.80;;;;;;4952262;29;20023;-65
2021/09/28 10:19:56;;;;;;;5.43;1.00;;;20.90;61.80;;;;;;4936470;29;20722;-63
2021/09/28 10:22:48;;;;;;;3.40;0.80;;;20.90;61.10;;;;;;4951687;29;20027;-65
2021/09/28 10:25:23;;;;;;;3.15;0.70;;;21.00;60.90;;;;;;4948602;29;20049;-66
2021/09/28 10:28:04;;;;;;;5.55;0.90;;;21.00;60.30;;;;;;4944218;29;20035;-65
2021/09/28 10:33:05;;;;;;;4.15;0.93;;;20.70;60.10;;;;;;4953503;29;20042;-68
2021/09/28 10:35:34;;;;;;;3.60;0.70;;;20.70;60.40;;;;;;4953706;29;20520;-67
2021/09/28 10:38:04;;;;;;;4.20;0.77;;;20.70;59.10;;;;;;4945400;29;20050;-66
2021/09/28 10:40:30;;;;;;;6.53;0.80;;;20.70;58.80;;;;;;4945878;29;20028;-72
2021/09/28 10:42:58;;;;;;;3.85;1.08;;;20.80;59.10;;;;;;4946599;29;20038;-72
2021/09/28 10:45:33;;;;;;;4.18;0.90;;;20.90;59.70;;;;;;4943945;29;20036;-72
2021/09/28 10:48:29;;;;;;;2.58;0.60;;;21.00;57.90;;;;;;4935474;29;20122;-73
2021/09/28 10:51:14;;;;;;;5.18;0.90;;;21.10;58.10;;;;;;4949279;29;20373;-72
2021/09/28 10:53:46;;;;;;;6.18;1.00;;;21.20;58.50;;;;;;4932789;29;20035;-72
2021/09/28 10:56:15;;;;;;;3.92;0.80;;;21.20;57.60;;;;;;4957027;28;20496;-72
2021/09/28 10:59:00;;;;;;;2.75;0.80;;;21.70;57.40;;;;;;4957154;29;20039;-75
2021/09/28 11:01:30;;;;;;;4.88;1.17;;;22.30;58.30;;;;;;4935537;29;20040;-74
2021/09/28 11:03:57;;;;;;;2.97;0.90;;;22.40;55.80;;;;;;4950830;29;20082;-72
2021/09/28 11:06:42;;;;;;;4.43;0.90;;;22.80;56.20;;;;;;4956495;29;20110;-72
2021/09/28 11:09:08;;;;;;;3.67;0.70;;;23.10;55.40;;;;;;4941968;29;20032;-71
2021/09/28 11:11:34;;;;;;;5.35;2.03;;;22.90;52.40;;;;;;4957512;29;20559;-71
2021/09/28 11:14:02;;;;;;;4.75;0.90;;;22.30;51.50;;;;;;4956728;29;20035;-71
2021/09/28 11:16:28;;;;;;;3.15;0.90;;;21.90;53.50;;;;;;4954304;29;20114;-73
2021/09/28 11:18:56;;;;;;;3.50;1.05;;;21.60;54.20;;;;;;4956534;29;20118;-73
2021/09/28 11:21:22;;;;;;;4.63;1.00;;;21.50;55.00;;;;;;4956398;29;20550;-71
2021/09/28 11:23:54;;;;;;;3.90;1.00;;;21.30;54.80;;;;;;4956802;29;20066;-71
2021/09/28 11:26:31;;;;;;;3.88;0.73;;;21.10;55.40;;;;;;4946430;29;20083;-72
2021/09/28 11:28:59;;;;;;;4.70;0.90;;;20.80;56.20;;;;;;4953339;29;20138;-72
2021/09/28 11:31:32;;;;;;;2.88;0.90;;;20.70;56.80;;;;;;4952095;29;20027;-69
2021/09/28 11:34:00;;;;;;;3.10;0.90;;;20.50;57.40;;;;;;4953147;29;20094;-69
2021/09/28 11:36:33;;;;;;;4.40;0.80;;;20.60;57.70;;;;;;4945288;29;20103;-69
2021/09/28 11:38:59;;;;;;;4.47;0.70;;;20.50;57.40;;;;;;4935473;29;20077;-69
2021/09/28 11:41:26;;;;;;;3.05;0.77;;;20.30;57.60;;;;;;4954712;29;20485;-69
2021/09/28 11:43:59;;;;;;;4.47;0.90;;;20.20;58.10;;;;;;4953363;29;20090;-70
2021/09/28 11:46:27;;;;;;;5.60;1.05;;;20.10;58.30;;;;;;4950115;29;20518;-69
2021/09/28 11:48:59;;;;;;;4.55;0.85;;;19.90;58.30;;;;;;4948042;29;20063;-70
2021/09/28 11:51:27;;;;;;;2.78;0.70;;;19.70;58.80;;;;;;4951818;29;20020;-72
2021/09/28 11:53:58;;;;;;;2.90;0.80;;;19.50;60.40;;;;;;4955384;29;20031;-71
2021/09/28 11:56:27;;;;;;;3.15;0.60;;;19.40;62.60;;;;;;4942954;29;20107;-70
2021/09/28 11:58:54;;;;;;;3.30;0.75;;;19.00;64.60;;;;;;4953618;29;20086;-71
2021/09/28 12:01:22;;;;;;;2.60;0.60;;;18.70;65.80;;;;;;4948473;29;20043;-71
2021/09/28 12:09:39;;;;;;;3.75;1.02;;;18.50;67.20;;;;;;4949101;28;20040;-70
2021/09/28 12:12:10;;;;;;;5.10;0.90;;;18.60;66.80;;;;;;4953761;29;20039;-70
2021/09/28 12:14:51;;;;;;;2.42;0.60;;;18.60;66.90;;;;;;4951166;29;20031;-69
2021/09/28 12:17:25;;;;;;;5.18;0.60;;;18.70;67.10;;;;;;4944644;29;20028;-69
2021/09/28 12:19:54;;;;;;;4.78;0.70;;;18.70;66.40;;;;;;4951118;29;20085;-70
2021/09/28 12:22:37;;;;;;;2.33;0.47;;;18.70;66.40;;;;;;4951886;29;20087;-70
2021/09/28 12:25:07;;;;;;;2.83;0.70;;;18.60;66.00;;;;;;4951744;29;20045;-70
2021/09/28 12:27:33;;;;;;;3.13;0.63;;;18.80;67.20;;;;;;4937370;29;20058;-70
2021/09/28 12:30:00;;;;;;;3.85;0.82;;;18.90;67.30;;;;;;4953319;28;20043;-71
2021/09/28 12:32:28;;;;;;;3.70;0.75;;;19.40;67.30;;;;;;4954122;29;20023;-69
2021/09/28 12:34:58;;;;;;;2.28;0.98;;;19.80;67.30;;;;;;4952581;29;20066;-72
2021/09/28 12:37:25;;;;;;;3.28;0.75;;;20.60;67.10;;;;;;4951735;29;20019;-73
2021/09/28 12:40:19;;;;;;;4.70;0.77;;;21.60;65.90;;;;;;4951562;29;20039;-71
2021/09/28 12:42:45;;;;;;;6.32;0.80;;;22.20;63.10;;;;;;4935758;29;20043;-71
2021/09/28 12:45:16;;;;;;;2.85;0.73;;;22.70;60.40;;;;;;4948630;29;20070;-71
2021/09/28 12:47:54;;;;;;;1.92;0.40;;;23.10;59.00;;;;;;4954274;29;20097;-71
2021/09/28 12:50:26;;;;;;;3.92;0.80;;;22.70;56.20;;;;;;4955711;28;20093;-71
2021/09/28 12:52:57;;;;;;;2.13;0.77;;;22.30;56.80;;;;;;4950462;29;20020;-70
2021/09/28 12:55:23;;;;;;;2.65;0.82;;;22.20;58.20;;;;;;4927483;29;20023;-70
2021/09/28 12:57:48;;;;;;;2.53;0.50;;;22.20;58.10;;;;;;4948588;29;20027;-71
2021/09/28 13:00:15;;;;;;;2.97;0.95;;;22.00;58.60;;;;;;4946086;29;20019;-71
2021/09/28 13:02:41;;;;;;;2.42;0.70;;;21.60;58.50;;;;;;4945742;29;20028;-71